createdAt,value
2023-03-22T00:01:32.448Z,13.04
2023-03-22T00:03:59.985Z,13.16
2023-03-22T00:06:26.942Z,13.18
2023-03-22T00:08:54.272Z,13.10
2023-03-22T00:11:24.318Z,13.12
2023-03-22T00:13:52.707Z,13.15
2023-03-22T00:16:20.435Z,12.87
2023-03-22T00:18:47.557Z,12.40
2023-03-22T00:21:16.042Z,12.07
2023-03-22T00:23:44.153Z,12.00
2023-03-22T00:26:13.878Z,11.96
2023-03-22T00:28:41.635Z,11.92
2023-03-22T00:31:09.254Z,12.11
2023-03-22T00:33:36.371Z,12.14
2023-03-22T00:36:09.400Z,12.31
2023-03-22T00:38:43.673Z,12.42
2023-03-22T00:41:16.911Z,12.31
2023-03-22T00:43:46.751Z,12.11
2023-03-22T00:46:15.032Z,12.13
2023-03-22T00:48:42.401Z,12.26
2023-03-22T00:51:10.277Z,12.50
2023-03-22T00:53:42.386Z,12.66
2023-03-22T00:56:14.200Z,12.66
2023-03-22T00:59:01.642Z,12.76
2023-03-22T01:01:30.205Z,12.76
2023-03-22T01:03:57.406Z,12.81
2023-03-22T01:06:24.424Z,12.81
2023-03-22T01:08:51.747Z,12.76
2023-03-22T01:11:18.913Z,12.68
2023-03-22T01:13:47.997Z,12.53
2023-03-22T01:16:15.344Z,12.27
2023-03-22T01:18:42.324Z,12.25
2023-03-22T01:21:10.956Z,12.17
2023-03-22T01:23:38.134Z,11.94
2023-03-22T01:26:05.724Z,12.00
2023-03-22T01:28:32.834Z,11.65
2023-03-22T01:31:03.146Z,11.60
2023-03-22T01:33:30.700Z,11.62
2023-03-22T01:35:57.939Z,11.06
2023-03-22T01:38:24.896Z,10.97
2023-03-22T01:40:58.744Z,10.96
2023-03-22T01:43:27.882Z,10.76
2023-03-22T01:45:57.241Z,10.70
2023-03-22T01:48:46.326Z,10.72
2023-03-22T01:51:27.714Z,10.91
2023-03-22T01:54:42.935Z,10.66
2023-03-22T01:57:28.310Z,10.49
2023-03-22T02:00:00.731Z,10.76
2023-03-22T02:02:41.538Z,10.76
2023-03-22T02:05:22.308Z,10.94
2023-03-22T02:07:50.600Z,10.80
2023-03-22T02:10:21.286Z,10.74
2023-03-22T02:13:10.571Z,10.87
2023-03-22T02:16:00.847Z,10.91
2023-03-22T02:19:03.281Z,10.59
2023-03-22T02:21:42.460Z,11.02
2023-03-22T02:24:46.840Z,11.05
2023-03-22T02:28:01.756Z,10.91
2023-03-22T02:30:59.957Z,11.11
2023-03-22T02:33:30.074Z,11.29
2023-03-22T02:36:22.358Z,11.28
2023-03-22T02:39:09.016Z,11.33
2023-03-22T02:41:46.616Z,11.20
2023-03-22T02:44:27.116Z,11.58
2023-03-22T02:47:08.110Z,11.82
2023-03-22T02:49:41.196Z,11.71
2023-03-22T02:52:25.345Z,11.92
2023-03-22T02:54:58.145Z,11.87
2023-03-22T02:57:43.510Z,11.93
2023-03-22T03:00:14.142Z,11.98
2023-03-22T03:02:46.972Z,11.96
2023-03-22T03:05:16.192Z,11.84
2023-03-22T03:07:51.025Z,11.93
2023-03-22T03:10:20.910Z,11.74
2023-03-22T03:12:48.016Z,11.96
2023-03-22T03:15:18.723Z,11.95
2023-03-22T03:17:51.602Z,11.94
2023-03-22T03:20:34.453Z,11.96
2023-03-22T03:23:07.355Z,11.91
2023-03-22T03:25:46.272Z,11.76
2023-03-22T03:28:23.098Z,11.90
2023-03-22T03:31:10.485Z,11.77
2023-03-22T03:33:55.241Z,11.62
2023-03-22T03:36:23.375Z,11.63
2023-03-22T03:38:54.204Z,11.54
2023-03-22T03:41:25.621Z,11.35
2023-03-22T03:43:54.268Z,11.28
2023-03-22T03:46:21.342Z,11.24
2023-03-22T03:48:51.616Z,11.37
2023-03-22T03:51:19.271Z,11.52
2023-03-22T03:53:47.200Z,11.50
2023-03-22T03:56:14.495Z,11.58
2023-03-22T03:58:46.500Z,11.56
2023-03-22T04:01:13.470Z,11.56
2023-03-22T04:03:55.496Z,11.35
2023-03-22T04:06:34.700Z,11.10
2023-03-22T04:09:08.690Z,10.88
2023-03-22T04:11:40.382Z,11.06
2023-03-22T04:14:07.478Z,11.39
2023-03-22T04:16:34.444Z,11.52
2023-03-22T04:19:01.401Z,11.64
2023-03-22T04:21:29.136Z,11.73
2023-03-22T04:23:58.711Z,11.70
2023-03-22T04:26:28.400Z,11.79
2023-03-22T04:29:09.849Z,11.88
2023-03-22T04:31:41.090Z,11.94
2023-03-22T04:34:21.771Z,11.90
2023-03-22T04:36:53.038Z,11.74
2023-03-22T04:39:27.711Z,11.84
2023-03-22T04:42:15.338Z,11.85
2023-03-22T04:44:43.505Z,11.92
2023-03-22T04:47:10.647Z,11.84
2023-03-22T04:49:38.033Z,11.85
2023-03-22T04:52:05.284Z,11.90
2023-03-22T04:54:35.225Z,11.91
2023-03-22T04:57:03.921Z,11.93
2023-03-22T04:59:36.947Z,11.90
2023-03-22T05:02:04.038Z,11.85
2023-03-22T05:04:38.205Z,11.65
2023-03-22T05:07:13.518Z,11.53
2023-03-22T05:09:46.755Z,11.26
2023-03-22T05:12:15.082Z,11.40
2023-03-22T05:15:00.189Z,11.21
2023-03-22T05:17:33.197Z,11.03
2023-03-22T05:20:09.367Z,11.07
2023-03-22T05:22:40.594Z,10.87
2023-03-22T05:25:10.634Z,11.00
2023-03-22T05:27:40.017Z,11.16
2023-03-22T05:30:31.362Z,11.12
2023-03-22T05:33:04.903Z,11.38
2023-03-22T05:35:39.234Z,11.43
2023-03-22T05:38:08.685Z,11.59
2023-03-22T05:40:38.339Z,11.77
2023-03-22T05:43:05.788Z,11.92
2023-03-22T05:45:35.379Z,11.94
2023-03-22T05:48:13.096Z,12.14
2023-03-22T05:50:41.106Z,12.08
2023-03-22T05:53:08.904Z,12.26
2023-03-22T05:55:50.323Z,12.26
2023-03-22T05:58:19.233Z,12.37
2023-03-22T06:00:49.976Z,12.41
2023-03-22T06:03:25.701Z,12.30
2023-03-22T06:06:00.985Z,12.31
2023-03-22T06:08:40.604Z,12.33
2023-03-22T06:11:08.373Z,12.37
2023-03-22T06:13:36.767Z,12.41
2023-03-22T06:16:05.669Z,12.24
2023-03-22T06:18:33.346Z,12.39
2023-03-22T06:21:08.365Z,12.22
2023-03-22T06:23:35.551Z,12.07
2023-03-22T06:26:02.649Z,11.84
2023-03-22T06:28:31.051Z,11.98
2023-03-22T06:31:05.371Z,11.64
2023-03-22T06:33:51.211Z,11.80
2023-03-22T06:36:26.892Z,11.79
2023-03-22T06:39:20.497Z,11.95
2023-03-22T06:41:48.696Z,11.85
2023-03-22T06:44:16.485Z,11.87
2023-03-22T06:46:52.380Z,11.99
2023-03-22T06:49:39.559Z,12.12
2023-03-22T06:52:06.624Z,12.22
2023-03-22T06:54:34.996Z,12.18
2023-03-22T06:57:02.040Z,12.19
2023-03-22T06:59:29.104Z,12.31
2023-03-22T07:01:56.209Z,12.27
2023-03-22T07:04:24.177Z,12.22
2023-03-22T07:06:52.116Z,12.23
2023-03-22T07:09:19.637Z,12.31
2023-03-22T07:11:48.905Z,12.42
2023-03-22T07:14:16.120Z,12.42
2023-03-22T07:17:07.002Z,12.53
2023-03-22T07:19:34.060Z,12.41
2023-03-22T07:22:06.642Z,12.27
2023-03-22T07:24:40.346Z,12.29
2023-03-22T07:27:11.852Z,12.25
2023-03-22T07:29:38.939Z,12.32
2023-03-22T07:32:07.517Z,12.25
2023-03-22T07:34:52.477Z,12.45
2023-03-22T07:37:19.772Z,12.61
2023-03-22T07:39:46.743Z,12.66
2023-03-22T07:42:13.769Z,12.48
2023-03-22T07:44:47.319Z,12.46
2023-03-22T07:47:34.139Z,12.24
2023-03-22T07:50:26.931Z,12.28
2023-03-22T07:52:56.722Z,12.25
2023-03-22T07:55:24.055Z,12.41
2023-03-22T07:57:51.324Z,12.69
2023-03-22T08:00:19.150Z,12.74
2023-03-22T08:02:56.327Z,12.89
2023-03-22T08:05:58.914Z,13.02
2023-03-22T08:08:26.513Z,12.98
2023-03-22T08:10:53.956Z,12.86
2023-03-22T08:13:20.983Z,12.94
2023-03-22T08:15:48.099Z,13.13
2023-03-22T08:18:15.577Z,13.24
2023-03-22T08:20:45.731Z,13.25
2023-03-22T08:23:18.153Z,13.13
2023-03-22T08:25:58.559Z,12.77
2023-03-22T08:28:26.634Z,12.63
2023-03-22T08:30:54.285Z,13.05
2023-03-22T08:33:23.776Z,12.50
2023-03-22T08:35:52.042Z,12.18
2023-03-22T08:38:19.747Z,11.70
2023-03-22T08:40:50.974Z,11.17
2023-03-22T08:43:22.210Z,11.36
2023-03-22T08:45:49.199Z,11.53
2023-03-22T08:48:19.586Z,11.59
2023-03-22T08:51:10.685Z,11.68
2023-03-22T08:53:52.060Z,11.86
2023-03-22T08:56:41.878Z,12.20
2023-03-22T08:59:22.428Z,12.17
2023-03-22T09:02:09.971Z,12.83
2023-03-22T09:04:36.956Z,12.87
2023-03-22T09:07:03.958Z,12.80
2023-03-22T09:09:31.011Z,12.85
2023-03-22T09:11:58.457Z,12.82
2023-03-22T09:14:25.703Z,12.88
2023-03-22T09:16:53.990Z,13.40
2023-03-22T09:19:21.249Z,13.78
2023-03-22T09:21:48.583Z,14.13
2023-03-22T09:24:20.763Z,14.46
2023-03-22T09:26:52.975Z,14.52
2023-03-22T09:29:20.631Z,14.12
2023-03-22T09:31:49.035Z,14.20
2023-03-22T09:34:19.968Z,14.64
2023-03-22T09:36:47.550Z,14.91
2023-03-22T09:39:17.829Z,15.27
2023-03-22T09:41:53.976Z,15.16
2023-03-22T09:44:34.937Z,15.20
2023-03-22T09:47:07.799Z,15.13
2023-03-22T09:49:52.707Z,15.25
2023-03-22T09:52:20.467Z,15.00
2023-03-22T09:54:47.578Z,15.07
2023-03-22T09:57:29.225Z,14.99
2023-03-22T09:59:58.918Z,14.84
2023-03-22T10:02:33.329Z,15.16
2023-03-22T10:05:00.299Z,15.12
2023-03-22T10:08:04.353Z,15.27
2023-03-22T10:10:31.798Z,14.53
2023-03-22T10:13:15.352Z,14.93
2023-03-22T10:16:04.261Z,14.61
2023-03-22T10:18:41.673Z,14.88
2023-03-22T10:21:11.387Z,14.99
2023-03-22T10:23:42.275Z,14.83
2023-03-22T10:26:21.573Z,15.04
2023-03-22T10:28:56.431Z,15.07
2023-03-22T10:31:26.891Z,15.11
2023-03-22T10:33:59.670Z,15.10
2023-03-22T10:36:31.552Z,15.02
2023-03-22T10:39:04.131Z,14.86
2023-03-22T10:41:33.822Z,15.08
2023-03-22T10:44:03.185Z,14.60
2023-03-22T10:46:37.247Z,14.62
2023-03-22T10:49:07.305Z,14.62
2023-03-22T10:51:43.445Z,14.97
2023-03-22T10:54:15.055Z,14.91
2023-03-22T10:56:43.220Z,15.23
2023-03-22T10:59:43.208Z,15.22
2023-03-22T11:02:19.231Z,14.96
2023-03-22T11:04:52.691Z,14.65
2023-03-22T11:07:31.772Z,14.93
2023-03-22T11:10:10.700Z,15.21
2023-03-22T11:12:43.823Z,15.47
2023-03-22T11:15:32.845Z,15.73
2023-03-22T11:18:07.935Z,15.44
2023-03-22T11:20:35.361Z,15.33
2023-03-22T11:23:05.315Z,15.65
2023-03-22T11:25:36.877Z,15.88
2023-03-22T11:28:23.119Z,16.03
2023-03-22T11:31:12.787Z,16.19
2023-03-22T11:34:06.356Z,15.99
2023-03-22T11:36:43.825Z,15.87
2023-03-22T11:39:12.382Z,16.06
2023-03-22T11:41:40.724Z,14.86
2023-03-22T11:44:29.052Z,14.97
2023-03-22T11:47:01.838Z,14.69
2023-03-22T11:49:56.445Z,14.61
2023-03-22T11:52:27.449Z,13.73
2023-03-22T11:54:56.181Z,13.75
2023-03-22T11:57:30.311Z,13.62
2023-03-22T12:00:06.976Z,13.83
2023-03-22T12:02:58.229Z,13.55
2023-03-22T12:05:34.089Z,13.59
2023-03-22T12:08:27.706Z,13.47
2023-03-22T12:11:07.718Z,13.61
2023-03-22T12:13:52.872Z,13.48
2023-03-22T12:16:28.576Z,13.44
2023-03-22T12:19:13.467Z,13.64
2023-03-22T12:21:41.638Z,13.57
2023-03-22T12:24:26.806Z,13.49
2023-03-22T12:26:58.184Z,13.17
2023-03-22T12:29:27.141Z,12.84
2023-03-22T12:31:54.186Z,12.71
2023-03-22T12:34:26.185Z,12.65
2023-03-22T12:36:56.953Z,12.55
2023-03-22T12:39:42.659Z,12.51
2023-03-22T12:42:24.672Z,12.81
2023-03-22T12:45:05.056Z,12.84
2023-03-22T12:47:41.893Z,12.71
2023-03-22T12:50:31.833Z,12.70
2023-03-22T12:52:59.214Z,12.72
2023-03-22T12:55:31.378Z,12.73
2023-03-22T12:57:58.674Z,12.67
2023-03-22T13:00:33.349Z,12.74
2023-03-22T13:03:10.418Z,12.57
2023-03-22T13:05:38.024Z,12.45
2023-03-22T13:08:05.613Z,12.68
2023-03-22T13:10:32.944Z,12.76
2023-03-22T13:13:33.954Z,12.94
2023-03-22T13:16:02.921Z,13.09
2023-03-22T13:18:35.836Z,13.18
2023-03-22T13:21:16.621Z,13.07
2023-03-22T13:24:00.972Z,12.80
2023-03-22T13:26:32.653Z,12.78
2023-03-22T13:29:08.024Z,12.70
2023-03-22T13:31:42.958Z,12.93
2023-03-22T13:34:18.037Z,12.58
2023-03-22T13:36:56.726Z,12.87
2023-03-22T13:39:27.419Z,12.60
2023-03-22T13:42:06.086Z,12.75
2023-03-22T13:44:39.050Z,13.00
2023-03-22T13:47:28.536Z,12.95
2023-03-22T13:50:02.550Z,12.96
2023-03-22T13:52:37.249Z,13.15
2023-03-22T13:55:17.486Z,12.90
2023-03-22T13:57:59.068Z,12.80
2023-03-22T14:00:32.224Z,12.80
2023-03-22T14:03:18.224Z,12.69
2023-03-22T14:05:47.399Z,12.53
2023-03-22T14:08:29.298Z,12.83
2023-03-22T14:11:07.572Z,12.54
2023-03-22T14:13:46.813Z,12.69
2023-03-22T14:16:40.440Z,13.02
2023-03-22T14:19:11.689Z,13.10
2023-03-22T14:21:41.853Z,13.28
